sensor_id;sensor_type;location;lat;lon;timestamp;P1;durP1;ratioP1;P2;durP2;ratioP2
15393;SDS011;7795;47.986;11.868;2023-01-05T00:01:27;0.40;;;0.40;;
15393;SDS011;7795;47.986;11.868;2023-01-05T00:03:53;0.40;;;0.40;;
15393;SDS011;7795;47.986;11.868;2023-01-05T00:06:19;0.40;;;0.40;;
15393;SDS011;7795;47.986;11.868;2023-01-05T00:08:45;1.87;;;0.50;;
15393;SDS011;7795;47.986;11.868;2023-01-05T00:11:12;0.40;;;0.40;;
15393;SDS011;7795;47.986;11.868;2023-01-05T00:13:59;0.50;;;0.37;;
15393;SDS011;7795;47.986;11.868;2023-01-05T00:16:44;0.40;;;0.40;;
15393;SDS011;7795;47.986;11.868;2023-01-05T00:19:29;0.40;;;0.40;;
15393;SDS011;7795;47.986;11.868;2023-01-05T00:22:14;0.30;;;0.30;;
15393;SDS011;7795;47.986;11.868;2023-01-05T00:24:56;0.63;;;0.50;;
15393;SDS011;7795;47.986;11.868;2023-01-05T00:27:22;0.30;;;0.30;;
15393;SDS011;7795;47.986;11.868;2023-01-05T00:29:49;0.40;;;0.40;;
15393;SDS011;7795;47.986;11.868;2023-01-05T00:32:15;0.53;;;0.30;;
15393;SDS011;7795;47.986;11.868;2023-01-05T00:34:41;0.50;;;0.50;;
15393;SDS011;7795;47.986;11.868;2023-01-05T00:37:06;0.50;;;0.50;;
15393;SDS011;7795;47.986;11.868;2023-01-05T00:39:32;0.30;;;0.30;;
15393;SDS011;7795;47.986;11.868;2023-01-05T00:41:58;0.50;;;0.50;;
15393;SDS011;7795;47.986;11.868;2023-01-05T00:44:24;0.30;;;0.30;;
15393;SDS011;7795;47.986;11.868;2023-01-05T00:46:51;0.40;;;0.40;;
15393;SDS011;7795;47.986;11.868;2023-01-05T00:49:16;1.03;;;0.50;;
15393;SDS011;7795;47.986;11.868;2023-01-05T00:51:42;0.50;;;0.50;;
15393;SDS011;7795;47.986;11.868;2023-01-05T00:54:08;0.60;;;0.40;;
15393;SDS011;7795;47.986;11.868;2023-01-05T00:56:34;0.40;;;0.40;;
15393;SDS011;7795;47.986;11.868;2023-01-05T00:58:59;0.40;;;0.40;;
15393;SDS011;7795;47.986;11.868;2023-01-05T01:01:25;0.50;;;0.50;;
15393;SDS011;7795;47.986;11.868;2023-01-05T01:03:52;0.40;;;0.40;;
15393;SDS011;7795;47.986;11.868;2023-01-05T01:06:19;0.50;;;0.50;;
15393;SDS011;7795;47.986;11.868;2023-01-05T01:08:45;0.40;;;0.40;;
15393;SDS011;7795;47.986;11.868;2023-01-05T01:11:11;0.30;;;0.30;;
15393;SDS011;7795;47.986;11.868;2023-01-05T01:13:37;0.40;;;0.40;;
15393;SDS011;7795;47.986;11.868;2023-01-05T01:16:06;0.47;;;0.47;;
15393;SDS011;7795;47.986;11.868;2023-01-05T01:18:32;0.30;;;0.30;;
15393;SDS011;7795;47.986;11.868;2023-01-05T01:20:59;0.40;;;0.40;;
15393;SDS011;7795;47.986;11.868;2023-01-05T01:23:25;0.30;;;0.30;;
15393;SDS011;7795;47.986;11.868;2023-01-05T01:25:51;0.30;;;0.30;;
15393;SDS011;7795;47.986;11.868;2023-01-05T01:28:17;0.47;;;0.47;;
15393;SDS011;7795;47.986;11.868;2023-01-05T01:30:43;0.40;;;0.40;;
15393;SDS011;7795;47.986;11.868;2023-01-05T01:33:09;0.50;;;0.50;;
15393;SDS011;7795;47.986;11.868;2023-01-05T01:35:35;0.50;;;0.50;;
15393;SDS011;7795;47.986;11.868;2023-01-05T01:38:03;0.83;;;0.50;;
15393;SDS011;7795;47.986;11.868;2023-01-05T01:40:29;0.40;;;0.40;;
15393;SDS011;7795;47.986;11.868;2023-01-05T01:42:57;0.50;;;0.30;;
15393;SDS011;7795;47.986;11.868;2023-01-05T01:45:23;0.50;;;0.50;;
15393;SDS011;7795;47.986;11.868;2023-01-05T01:47:50;0.40;;;0.40;;
15393;SDS011;7795;47.986;11.868;2023-01-05T01:50:21;0.60;;;0.60;;
15393;SDS011;7795;47.986;11.868;2023-01-05T01:52:51;0.50;;;0.50;;
15393;SDS011;7795;47.986;11.868;2023-01-05T01:55:22;0.50;;;0.50;;
15393;SDS011;7795;47.986;11.868;2023-01-05T01:57:49;0.30;;;0.30;;
15393;SDS011;7795;47.986;11.868;2023-01-05T02:00:16;0.40;;;0.40;;
15393;SDS011;7795;47.986;11.868;2023-01-05T02:02:42;0.40;;;0.40;;
15393;SDS011;7795;47.986;11.868;2023-01-05T02:05:10;0.33;;;0.33;;
15393;SDS011;7795;47.986;11.868;2023-01-05T02:07:41;0.30;;;0.30;;
15393;SDS011;7795;47.986;11.868;2023-01-05T02:10:08;0.50;;;0.50;;
15393;SDS011;7795;47.986;11.868;2023-01-05T02:12:38;0.60;;;0.40;;
15393;SDS011;7795;47.986;11.868;2023-01-05T02:15:19;0.47;;;0.47;;
15393;SDS011;7795;47.986;11.868;2023-01-05T02:17:56;0.37;;;0.37;;
15393;SDS011;7795;47.986;11.868;2023-01-05T02:20:46;0.40;;;0.40;;
15393;SDS011;7795;47.986;11.868;2023-01-05T02:23:37;0.30;;;0.30;;
15393;SDS011;7795;47.986;11.868;2023-01-05T02:26:27;0.30;;;0.30;;
15393;SDS011;7795;47.986;11.868;2023-01-05T02:29:16;0.53;;;0.53;;
15393;SDS011;7795;47.986;11.868;2023-01-05T02:32:02;0.47;;;0.40;;
15393;SDS011;7795;47.986;11.868;2023-01-05T02:34:35;0.40;;;0.40;;
15393;SDS011;7795;47.986;11.868;2023-01-05T02:37:10;0.40;;;0.40;;
15393;SDS011;7795;47.986;11.868;2023-01-05T02:39:40;0.40;;;0.40;;
15393;SDS011;7795;47.986;11.868;2023-01-05T02:42:14;0.40;;;0.40;;
15393;SDS011;7795;47.986;11.868;2023-01-05T02:44:44;0.30;;;0.30;;
15393;SDS011;7795;47.986;11.868;2023-01-05T02:50:05;0.30;;;0.30;;
15393;SDS011;7795;47.986;11.868;2023-01-05T02:52:37;0.50;;;0.50;;
15393;SDS011;7795;47.986;11.868;2023-01-05T02:55:08;0.40;;;0.40;;
15393;SDS011;7795;47.986;11.868;2023-01-05T02:57:37;0.40;;;0.30;;
15393;SDS011;7795;47.986;11.868;2023-01-05T03:00:15;1.27;;;0.50;;
15393;SDS011;7795;47.986;11.868;2023-01-05T03:02:45;0.40;;;0.40;;
15393;SDS011;7795;47.986;11.868;2023-01-05T03:05:14;0.40;;;0.40;;
15393;SDS011;7795;47.986;11.868;2023-01-05T03:07:43;1.37;;;0.40;;
15393;SDS011;7795;47.986;11.868;2023-01-05T03:10:10;0.33;;;0.33;;
15393;SDS011;7795;47.986;11.868;2023-01-05T03:12:56;0.30;;;0.30;;
15393;SDS011;7795;47.986;11.868;2023-01-05T03:15:44;0.50;;;0.50;;
15393;SDS011;7795;47.986;11.868;2023-01-05T03:18:13;0.30;;;0.30;;
15393;SDS011;7795;47.986;11.868;2023-01-05T03:20:43;1.07;;;0.50;;
15393;SDS011;7795;47.986;11.868;2023-01-05T03:23:13;0.67;;;0.40;;
15393;SDS011;7795;47.986;11.868;2023-01-05T03:26:02;0.50;;;0.50;;
15393;SDS011;7795;47.986;11.868;2023-01-05T03:28:49;0.50;;;0.50;;
15393;SDS011;7795;47.986;11.868;2023-01-05T03:31:38;0.30;;;0.30;;
15393;SDS011;7795;47.986;11.868;2023-01-05T03:34:30;0.30;;;0.30;;
15393;SDS011;7795;47.986;11.868;2023-01-05T03:37:25;0.40;;;0.40;;
15393;SDS011;7795;47.986;11.868;2023-01-05T03:39:55;0.30;;;0.30;;
15393;SDS011;7795;47.986;11.868;2023-01-05T03:42:21;0.50;;;0.50;;
15393;SDS011;7795;47.986;11.868;2023-01-05T03:44:47;0.40;;;0.40;;
15393;SDS011;7795;47.986;11.868;2023-01-05T03:47:14;0.40;;;0.40;;
15393;SDS011;7795;47.986;11.868;2023-01-05T03:49:41;0.50;;;0.50;;
15393;SDS011;7795;47.986;11.868;2023-01-05T03:52:07;2.23;;;0.50;;
15393;SDS011;7795;47.986;11.868;2023-01-05T03:54:33;0.40;;;0.30;;
15393;SDS011;7795;47.986;11.868;2023-01-05T03:56:58;0.30;;;0.30;;
15393;SDS011;7795;47.986;11.868;2023-01-05T03:59:24;0.40;;;0.40;;
15393;SDS011;7795;47.986;11.868;2023-01-05T04:01:50;0.50;;;0.50;;
15393;SDS011;7795;47.986;11.868;2023-01-05T04:04:15;0.40;;;0.40;;
15393;SDS011;7795;47.986;11.868;2023-01-05T04:06:43;0.50;;;0.50;;
15393;SDS011;7795;47.986;11.868;2023-01-05T04:09:08;0.30;;;0.30;;
15393;SDS011;7795;47.986;11.868;2023-01-05T04:11:34;0.93;;;0.50;;
15393;SDS011;7795;47.986;11.868;2023-01-05T04:14:00;0.90;;;0.50;;
15393;SDS011;7795;47.986;11.868;2023-01-05T04:16:25;0.40;;;0.40;;
15393;SDS011;7795;47.986;11.868;2023-01-05T04:18:52;0.50;;;0.50;;
15393;SDS011;7795;47.986;11.868;2023-01-05T04:21:18;0.87;;;0.50;;
15393;SDS011;7795;47.986;11.868;2023-01-05T04:23:45;0.73;;;0.47;;
15393;SDS011;7795;47.986;11.868;2023-01-05T04:26:11;0.30;;;0.30;;
15393;SDS011;7795;47.986;11.868;2023-01-05T04:28:37;0.40;;;0.40;;
15393;SDS011;7795;47.986;11.868;2023-01-05T04:31:02;0.40;;;0.40;;
15393;SDS011;7795;47.986;11.868;2023-01-05T04:33:28;1.17;;;0.50;;
15393;SDS011;7795;47.986;11.868;2023-01-05T04:35:54;0.67;;;0.50;;
15393;SDS011;7795;47.986;11.868;2023-01-05T04:38:20;0.50;;;0.50;;
15393;SDS011;7795;47.986;11.868;2023-01-05T04:40:48;0.50;;;0.50;;
15393;SDS011;7795;47.986;11.868;2023-01-05T04:43:13;0.40;;;0.40;;
15393;SDS011;7795;47.986;11.868;2023-01-05T04:45:39;0.40;;;0.40;;
15393;SDS011;7795;47.986;11.868;2023-01-05T04:48:05;0.87;;;0.40;;
15393;SDS011;7795;47.986;11.868;2023-01-05T04:50:31;0.50;;;0.50;;
15393;SDS011;7795;47.986;11.868;2023-01-05T04:52:57;0.70;;;0.47;;
15393;SDS011;7795;47.986;11.868;2023-01-05T04:55:23;0.30;;;0.30;;
15393;SDS011;7795;47.986;11.868;2023-01-05T04:57:50;0.40;;;0.40;;
15393;SDS011;7795;47.986;11.868;2023-01-05T05:00:16;0.50;;;0.50;;
15393;SDS011;7795;47.986;11.868;2023-01-05T05:02:41;0.40;;;0.40;;
15393;SDS011;7795;47.986;11.868;2023-01-05T05:05:07;0.73;;;0.50;;
15393;SDS011;7795;47.986;11.868;2023-01-05T05:07:33;0.43;;;0.43;;
15393;SDS011;7795;47.986;11.868;2023-01-05T05:09:59;3.93;;;1.63;;
15393;SDS011;7795;47.986;11.868;2023-01-05T05:12:25;0.30;;;0.30;;
15393;SDS011;7795;47.986;11.868;2023-01-05T05:14:52;0.43;;;0.43;;
15393;SDS011;7795;47.986;11.868;2023-01-05T05:17:18;0.40;;;0.40;;
15393;SDS011;7795;47.986;11.868;2023-01-05T05:19:43;3.00;;;0.70;;
15393;SDS011;7795;47.986;11.868;2023-01-05T05:22:09;0.60;;;0.60;;
15393;SDS011;7795;47.986;11.868;2023-01-05T05:24:35;1.80;;;0.50;;
15393;SDS011;7795;47.986;11.868;2023-01-05T05:27:01;0.43;;;0.43;;
15393;SDS011;7795;47.986;11.868;2023-01-05T05:29:27;0.40;;;0.40;;
15393;SDS011;7795;47.986;11.868;2023-01-05T05:31:54;0.40;;;0.40;;
15393;SDS011;7795;47.986;11.868;2023-01-05T05:34:20;0.60;;;0.60;;
15393;SDS011;7795;47.986;11.868;2023-01-05T05:36:47;0.50;;;0.50;;
15393;SDS011;7795;47.986;11.868;2023-01-05T05:39:13;1.03;;;0.50;;
15393;SDS011;7795;47.986;11.868;2023-01-05T05:41:39;0.50;;;0.50;;
15393;SDS011;7795;47.986;11.868;2023-01-05T05:44:06;0.67;;;0.40;;
15393;SDS011;7795;47.986;11.868;2023-01-05T05:46:31;0.50;;;0.50;;
15393;SDS011;7795;47.986;11.868;2023-01-05T05:48:59;0.50;;;0.50;;
15393;SDS011;7795;47.986;11.868;2023-01-05T05:51:25;0.50;;;0.50;;
15393;SDS011;7795;47.986;11.868;2023-01-05T05:53:51;0.40;;;0.40;;
15393;SDS011;7795;47.986;11.868;2023-01-05T05:56:18;0.47;;;0.47;;
15393;SDS011;7795;47.986;11.868;2023-01-05T05:58:44;0.97;;;0.60;;
15393;SDS011;7795;47.986;11.868;2023-01-05T06:01:10;1.27;;;0.60;;
15393;SDS011;7795;47.986;11.868;2023-01-05T06:03:36;0.40;;;0.40;;
15393;SDS011;7795;47.986;11.868;2023-01-05T06:06:04;0.63;;;0.47;;
15393;SDS011;7795;47.986;11.868;2023-01-05T06:08:30;0.40;;;0.37;;
15393;SDS011;7795;47.986;11.868;2023-01-05T06:10:56;0.93;;;0.40;;
15393;SDS011;7795;47.986;11.868;2023-01-05T06:13:22;0.50;;;0.50;;
15393;SDS011;7795;47.986;11.868;2023-01-05T06:15:48;0.50;;;0.50;;
15393;SDS011;7795;47.986;11.868;2023-01-05T06:18:14;0.50;;;0.50;;
15393;SDS011;7795;47.986;11.868;2023-01-05T06:20:40;0.50;;;0.50;;
15393;SDS011;7795;47.986;11.868;2023-01-05T06:23:07;0.50;;;0.50;;
15393;SDS011;7795;47.986;11.868;2023-01-05T06:25:34;0.50;;;0.50;;
15393;SDS011;7795;47.986;11.868;2023-01-05T06:27:59;0.60;;;0.60;;
15393;SDS011;7795;47.986;11.868;2023-01-05T06:30:26;0.40;;;0.40;;
15393;SDS011;7795;47.986;11.868;2023-01-05T06:32:52;0.50;;;0.50;;
15393;SDS011;7795;47.986;11.868;2023-01-05T06:35:17;0.50;;;0.50;;
15393;SDS011;7795;47.986;11.868;2023-01-05T06:37:43;0.50;;;0.50;;
15393;SDS011;7795;47.986;11.868;2023-01-05T06:40:10;0.80;;;0.70;;
15393;SDS011;7795;47.986;11.868;2023-01-05T06:42:37;0.50;;;0.50;;
15393;SDS011;7795;47.986;11.868;2023-01-05T06:45:04;0.77;;;0.70;;
15393;SDS011;7795;47.986;11.868;2023-01-05T06:47:30;0.60;;;0.60;;
15393;SDS011;7795;47.986;11.868;2023-01-05T06:49:57;0.60;;;0.60;;
15393;SDS011;7795;47.986;11.868;2023-01-05T06:52:22;0.83;;;0.80;;
15393;SDS011;7795;47.986;11.868;2023-01-05T06:54:48;0.50;;;0.50;;
15393;SDS011;7795;47.986;11.868;2023-01-05T06:57:17;0.53;;;0.50;;
15393;SDS011;7795;47.986;11.868;2023-01-05T06:59:43;0.60;;;0.60;;
15393;SDS011;7795;47.986;11.868;2023-01-05T07:02:11;0.60;;;0.60;;
15393;SDS011;7795;47.986;11.868;2023-01-05T07:04:38;0.90;;;0.90;;
15393;SDS011;7795;47.986;11.868;2023-01-05T07:07:04;1.13;;;0.80;;
15393;SDS011;7795;47.986;11.868;2023-01-05T07:09:30;0.40;;;0.40;;
15393;SDS011;7795;47.986;11.868;2023-01-05T07:11:55;0.50;;;0.50;;
15393;SDS011;7795;47.986;11.868;2023-01-05T07:14:22;0.60;;;0.60;;
15393;SDS011;7795;47.986;11.868;2023-01-05T07:16:48;0.43;;;0.43;;
15393;SDS011;7795;47.986;11.868;2023-01-05T07:19:14;1.10;;;0.57;;
15393;SDS011;7795;47.986;11.868;2023-01-05T07:21:39;0.50;;;0.50;;
15393;SDS011;7795;47.986;11.868;2023-01-05T07:24:05;0.33;;;0.33;;
15393;SDS011;7795;47.986;11.868;2023-01-05T07:26:31;0.50;;;0.50;;
15393;SDS011;7795;47.986;11.868;2023-01-05T07:28:57;0.40;;;0.40;;
15393;SDS011;7795;47.986;11.868;2023-01-05T07:31:24;0.40;;;0.40;;
15393;SDS011;7795;47.986;11.868;2023-01-05T07:33:50;0.50;;;0.50;;
15393;SDS011;7795;47.986;11.868;2023-01-05T07:36:16;0.53;;;0.53;;
15393;SDS011;7795;47.986;11.868;2023-01-05T07:38:41;0.57;;;0.57;;
15393;SDS011;7795;47.986;11.868;2023-01-05T07:41:07;0.50;;;0.50;;
15393;SDS011;7795;47.986;11.868;2023-01-05T07:43:33;0.50;;;0.50;;
15393;SDS011;7795;47.986;11.868;2023-01-05T07:46:00;0.50;;;0.50;;
15393;SDS011;7795;47.986;11.868;2023-01-05T07:48:28;0.50;;;0.50;;
15393;SDS011;7795;47.986;11.868;2023-01-05T07:50:58;0.53;;;0.53;;
15393;SDS011;7795;47.986;11.868;2023-01-05T07:53:28;0.70;;;0.70;;
15393;SDS011;7795;47.986;11.868;2023-01-05T07:55:55;0.50;;;0.50;;
15393;SDS011;7795;47.986;11.868;2023-01-05T07:58:21;0.50;;;0.50;;
15393;SDS011;7795;47.986;11.868;2023-01-05T08:00:47;0.40;;;0.40;;
15393;SDS011;7795;47.986;11.868;2023-01-05T08:03:13;0.50;;;0.50;;
15393;SDS011;7795;47.986;11.868;2023-01-05T08:05:41;0.57;;;0.57;;
15393;SDS011;7795;47.986;11.868;2023-01-05T08:08:07;1.03;;;0.53;;
15393;SDS011;7795;47.986;11.868;2023-01-05T08:10:32;0.70;;;0.70;;
15393;SDS011;7795;47.986;11.868;2023-01-05T08:13:01;0.50;;;0.50;;
15393;SDS011;7795;47.986;11.868;2023-01-05T08:15:47;0.60;;;0.60;;
15393;SDS011;7795;47.986;11.868;2023-01-05T08:18:12;0.53;;;0.53;;
15393;SDS011;7795;47.986;11.868;2023-01-05T08:20:38;0.67;;;0.67;;
15393;SDS011;7795;47.986;11.868;2023-01-05T08:23:05;0.80;;;0.80;;
15393;SDS011;7795;47.986;11.868;2023-01-05T08:25:31;0.60;;;0.50;;
15393;SDS011;7795;47.986;11.868;2023-01-05T08:27:57;0.50;;;0.50;;
15393;SDS011;7795;47.986;11.868;2023-01-05T08:30:23;0.97;;;0.67;;
15393;SDS011;7795;47.986;11.868;2023-01-05T08:32:49;1.00;;;0.80;;
15393;SDS011;7795;47.986;11.868;2023-01-05T08:35:15;0.60;;;0.50;;
15393;SDS011;7795;47.986;11.868;2023-01-05T08:37:42;0.77;;;0.77;;
15393;SDS011;7795;47.986;11.868;2023-01-05T08:40:10;0.90;;;0.80;;
15393;SDS011;7795;47.986;11.868;2023-01-05T08:42:36;0.60;;;0.60;;
15393;SDS011;7795;47.986;11.868;2023-01-05T08:45:03;1.10;;;0.67;;
15393;SDS011;7795;47.986;11.868;2023-01-05T08:47:29;0.70;;;0.70;;
15393;SDS011;7795;47.986;11.868;2023-01-05T08:49:55;0.50;;;0.50;;
15393;SDS011;7795;47.986;11.868;2023-01-05T08:52:21;0.50;;;0.50;;
15393;SDS011;7795;47.986;11.868;2023-01-05T08:54:47;0.53;;;0.53;;
15393;SDS011;7795;47.986;11.868;2023-01-05T08:57:14;1.20;;;1.20;;
15393;SDS011;7795;47.986;11.868;2023-01-05T08:59:40;0.97;;;0.60;;
15393;SDS011;7795;47.986;11.868;2023-01-05T09:02:07;1.03;;;0.90;;
15393;SDS011;7795;47.986;11.868;2023-01-05T09:04:35;1.30;;;0.90;;
15393;SDS011;7795;47.986;11.868;2023-01-05T09:07:01;0.77;;;0.77;;
15393;SDS011;7795;47.986;11.868;2023-01-05T09:09:26;0.63;;;0.63;;
15393;SDS011;7795;47.986;11.868;2023-01-05T09:11:52;0.60;;;0.60;;
15393;SDS011;7795;47.986;11.868;2023-01-05T09:14:19;0.70;;;0.60;;
15393;SDS011;7795;47.986;11.868;2023-01-05T09:16:45;0.57;;;0.57;;
15393;SDS011;7795;47.986;11.868;2023-01-05T09:19:11;0.50;;;0.50;;
15393;SDS011;7795;47.986;11.868;2023-01-05T09:21:37;0.50;;;0.50;;
15393;SDS011;7795;47.986;11.868;2023-01-05T09:24:05;0.40;;;0.40;;
15393;SDS011;7795;47.986;11.868;2023-01-05T09:26:31;0.50;;;0.50;;
15393;SDS011;7795;47.986;11.868;2023-01-05T09:28:57;0.40;;;0.40;;
15393;SDS011;7795;47.986;11.868;2023-01-05T09:31:24;0.70;;;0.70;;
15393;SDS011;7795;47.986;11.868;2023-01-05T09:33:50;0.30;;;0.30;;
15393;SDS011;7795;47.986;11.868;2023-01-05T09:36:16;0.47;;;0.40;;
15393;SDS011;7795;47.986;11.868;2023-01-05T09:38:46;0.93;;;0.50;;
15393;SDS011;7795;47.986;11.868;2023-01-05T09:41:14;0.50;;;0.50;;
15393;SDS011;7795;47.986;11.868;2023-01-05T09:43:44;0.40;;;0.40;;
15393;SDS011;7795;47.986;11.868;2023-01-05T09:46:14;0.33;;;0.33;;
15393;SDS011;7795;47.986;11.868;2023-01-05T09:48:45;0.67;;;0.67;;
15393;SDS011;7795;47.986;11.868;2023-01-05T09:51:14;0.50;;;0.50;;
15393;SDS011;7795;47.986;11.868;2023-01-05T09:53:40;0.80;;;0.80;;
15393;SDS011;7795;47.986;11.868;2023-01-05T09:56:09;0.83;;;0.73;;
15393;SDS011;7795;47.986;11.868;2023-01-05T09:58:50;0.53;;;0.53;;
15393;SDS011;7795;47.986;11.868;2023-01-05T10:01:16;0.70;;;0.70;;
15393;SDS011;7795;47.986;11.868;2023-01-05T10:03:49;0.70;;;0.60;;
15393;SDS011;7795;47.986;11.868;2023-01-05T10:06:19;0.50;;;0.50;;
15393;SDS011;7795;47.986;11.868;2023-01-05T10:08:49;1.57;;;1.20;;
15393;SDS011;7795;47.986;11.868;2023-01-05T10:11:16;0.60;;;0.60;;
15393;SDS011;7795;47.986;11.868;2023-01-05T10:14:05;0.73;;;0.50;;
15393;SDS011;7795;47.986;11.868;2023-01-05T10:16:36;0.60;;;0.60;;
15393;SDS011;7795;47.986;11.868;2023-01-05T10:19:04;0.60;;;0.47;;
15393;SDS011;7795;47.986;11.868;2023-01-05T10:21:36;0.77;;;0.70;;
15393;SDS011;7795;47.986;11.868;2023-01-05T10:24:17;1.03;;;0.67;;
15393;SDS011;7795;47.986;11.868;2023-01-05T10:26:52;0.83;;;0.80;;
15393;SDS011;7795;47.986;11.868;2023-01-05T10:29:23;0.83;;;0.80;;
15393;SDS011;7795;47.986;11.868;2023-01-05T10:31:54;2.07;;;1.40;;
15393;SDS011;7795;47.986;11.868;2023-01-05T10:34:27;0.90;;;0.70;;
15393;SDS011;7795;47.986;11.868;2023-01-05T10:37:11;1.90;;;0.53;;
15393;SDS011;7795;47.986;11.868;2023-01-05T10:39:58;0.77;;;0.60;;
15393;SDS011;7795;47.986;11.868;2023-01-05T10:42:43;0.40;;;0.40;;
15393;SDS011;7795;47.986;11.868;2023-01-05T10:45:16;1.37;;;0.50;;
15393;SDS011;7795;47.986;11.868;2023-01-05T10:47:43;1.13;;;0.50;;
15393;SDS011;7795;47.986;11.868;2023-01-05T10:50:25;0.40;;;0.40;;
15393;SDS011;7795;47.986;11.868;2023-01-05T10:52:55;0.60;;;0.60;;
15393;SDS011;7795;47.986;11.868;2023-01-05T10:55:22;0.40;;;0.40;;
15393;SDS011;7795;47.986;11.868;2023-01-05T10:57:49;0.93;;;0.60;;
15393;SDS011;7795;47.986;11.868;2023-01-05T11:00:15;0.60;;;0.60;;
15393;SDS011;7795;47.986;11.868;2023-01-05T11:02:45;0.60;;;0.60;;
15393;SDS011;7795;47.986;11.868;2023-01-05T11:05:22;5.30;;;1.40;;
15393;SDS011;7795;47.986;11.868;2023-01-05T11:07:55;0.93;;;0.70;;
15393;SDS011;7795;47.986;11.868;2023-01-05T11:10:26;2.17;;;0.77;;
15393;SDS011;7795;47.986;11.868;2023-01-05T11:12:57;8.00;;;0.90;;
15393;SDS011;7795;47.986;11.868;2023-01-05T11:15:27;1.90;;;0.60;;
15393;SDS011;7795;47.986;11.868;2023-01-05T11:17:53;1.90;;;0.60;;
15393;SDS011;7795;47.986;11.868;2023-01-05T11:20:19;0.67;;;0.50;;
15393;SDS011;7795;47.986;11.868;2023-01-05T11:22:46;2.23;;;0.80;;
15393;SDS011;7795;47.986;11.868;2023-01-05T11:25:18;1.07;;;0.73;;
15393;SDS011;7795;47.986;11.868;2023-01-05T11:28:04;0.80;;;0.60;;
15393;SDS011;7795;47.986;11.868;2023-01-05T11:30:31;0.50;;;0.50;;
15393;SDS011;7795;47.986;11.868;2023-01-05T11:32:57;0.60;;;0.50;;
15393;SDS011;7795;47.986;11.868;2023-01-05T11:35:27;0.70;;;0.50;;
15393;SDS011;7795;47.986;11.868;2023-01-05T11:37:58;0.50;;;0.50;;
15393;SDS011;7795;47.986;11.868;2023-01-05T11:40:26;0.70;;;0.70;;
15393;SDS011;7795;47.986;11.868;2023-01-05T11:42:53;2.27;;;0.80;;
15393;SDS011;7795;47.986;11.868;2023-01-05T11:45:20;0.50;;;0.50;;
15393;SDS011;7795;47.986;11.868;2023-01-05T11:47:49;0.63;;;0.63;;
15393;SDS011;7795;47.986;11.868;2023-01-05T11:50:18;0.60;;;0.60;;
15393;SDS011;7795;47.986;11.868;2023-01-05T11:52:46;3.67;;;1.00;;
15393;SDS011;7795;47.986;11.868;2023-01-05T11:55:28;0.70;;;0.60;;
15393;SDS011;7795;47.986;11.868;2023-01-05T11:58:12;1.13;;;0.70;;
15393;SDS011;7795;47.986;11.868;2023-01-05T12:00:45;0.80;;;0.63;;
15393;SDS011;7795;47.986;11.868;2023-01-05T12:03:25;0.30;;;0.30;;
15393;SDS011;7795;47.986;11.868;2023-01-05T12:06:02;1.63;;;0.80;;
15393;SDS011;7795;47.986;11.868;2023-01-05T12:08:35;1.23;;;0.50;;
15393;SDS011;7795;47.986;11.868;2023-01-05T12:11:10;0.80;;;0.60;;
15393;SDS011;7795;47.986;11.868;2023-01-05T12:13:46;1.27;;;0.93;;
15393;SDS011;7795;47.986;11.868;2023-01-05T12:16:33;0.70;;;0.60;;
15393;SDS011;7795;47.986;11.868;2023-01-05T12:19:15;2.73;;;0.70;;
15393;SDS011;7795;47.986;11.868;2023-01-05T12:22:17;0.80;;;0.80;;
15393;SDS011;7795;47.986;11.868;2023-01-05T12:25:01;1.53;;;0.70;;
15393;SDS011;7795;47.986;11.868;2023-01-05T12:27:38;1.00;;;0.87;;
15393;SDS011;7795;47.986;11.868;2023-01-05T12:30:27;0.60;;;0.60;;
15393;SDS011;7795;47.986;11.868;2023-01-05T12:33:12;0.40;;;0.40;;
15393;SDS011;7795;47.986;11.868;2023-01-05T12:38:53;0.60;;;0.50;;
15393;SDS011;7795;47.986;11.868;2023-01-05T12:44:33;0.50;;;0.50;;
15393;SDS011;7795;47.986;11.868;2023-01-05T12:47:25;0.60;;;0.60;;
15393;SDS011;7795;47.986;11.868;2023-01-05T12:50:08;0.83;;;0.63;;
15393;SDS011;7795;47.986;11.868;2023-01-05T12:52:46;0.80;;;0.70;;
15393;SDS011;7795;47.986;11.868;2023-01-05T12:55:16;0.80;;;0.70;;
15393;SDS011;7795;47.986;11.868;2023-01-05T12:57:45;5.77;;;3.50;;
15393;SDS011;7795;47.986;11.868;2023-01-05T13:00:15;6.57;;;4.03;;
15393;SDS011;7795;47.986;11.868;2023-01-05T13:02:45;6.03;;;3.33;;
15393;SDS011;7795;47.986;11.868;2023-01-05T13:05:18;2.60;;;1.80;;
15393;SDS011;7795;47.986;11.868;2023-01-05T13:07:49;2.13;;;1.10;;
15393;SDS011;7795;47.986;11.868;2023-01-05T13:10:19;1.63;;;1.10;;
15393;SDS011;7795;47.986;11.868;2023-01-05T13:12:49;0.80;;;0.80;;
15393;SDS011;7795;47.986;11.868;2023-01-05T13:15:23;0.50;;;0.50;;
15393;SDS011;7795;47.986;11.868;2023-01-05T13:17:53;0.60;;;0.60;;
15393;SDS011;7795;47.986;11.868;2023-01-05T13:20:24;4.87;;;1.03;;
15393;SDS011;7795;47.986;11.868;2023-01-05T13:22:56;1.47;;;1.17;;
15393;SDS011;7795;47.986;11.868;2023-01-05T13:25:26;0.90;;;0.80;;
15393;SDS011;7795;47.986;11.868;2023-01-05T13:27:55;0.70;;;0.70;;
15393;SDS011;7795;47.986;11.868;2023-01-05T13:30:23;2.10;;;1.03;;
15393;SDS011;7795;47.986;11.868;2023-01-05T13:33:00;2.07;;;1.00;;
15393;SDS011;7795;47.986;11.868;2023-01-05T13:35:44;0.57;;;0.57;;
15393;SDS011;7795;47.986;11.868;2023-01-05T13:38:24;2.10;;;0.80;;
15393;SDS011;7795;47.986;11.868;2023-01-05T13:41:23;0.60;;;0.60;;
15393;SDS011;7795;47.986;11.868;2023-01-05T13:46:59;0.50;;;0.50;;
15393;SDS011;7795;47.986;11.868;2023-01-05T13:53:02;0.80;;;0.80;;
15393;SDS011;7795;47.986;11.868;2023-01-05T13:55:34;0.60;;;0.60;;
15393;SDS011;7795;47.986;11.868;2023-01-05T13:58:04;0.50;;;0.50;;
15393;SDS011;7795;47.986;11.868;2023-01-05T14:00:37;0.77;;;0.77;;
15393;SDS011;7795;47.986;11.868;2023-01-05T14:03:12;0.40;;;0.40;;
15393;SDS011;7795;47.986;11.868;2023-01-05T14:05:46;1.23;;;0.60;;
15393;SDS011;7795;47.986;11.868;2023-01-05T14:08:17;0.63;;;0.50;;
15393;SDS011;7795;47.986;11.868;2023-01-05T14:13:41;0.90;;;0.50;;
15393;SDS011;7795;47.986;11.868;2023-01-05T14:19:21;0.63;;;0.60;;
15393;SDS011;7795;47.986;11.868;2023-01-05T14:28:16;0.93;;;0.60;;
15393;SDS011;7795;47.986;11.868;2023-01-05T14:30:44;0.50;;;0.50;;
15393;SDS011;7795;47.986;11.868;2023-01-05T14:33:10;1.50;;;0.77;;
15393;SDS011;7795;47.986;11.868;2023-01-05T14:35:37;0.40;;;0.40;;
15393;SDS011;7795;47.986;11.868;2023-01-05T14:38:04;0.50;;;0.50;;
15393;SDS011;7795;47.986;11.868;2023-01-05T14:40:38;0.97;;;0.70;;
15393;SDS011;7795;47.986;11.868;2023-01-05T14:43:06;1.57;;;0.50;;
15393;SDS011;7795;47.986;11.868;2023-01-05T14:45:45;0.70;;;0.60;;
15393;SDS011;7795;47.986;11.868;2023-01-05T14:48:25;0.70;;;0.60;;
15393;SDS011;7795;47.986;11.868;2023-01-05T14:51:07;0.43;;;0.43;;
15393;SDS011;7795;47.986;11.868;2023-01-05T14:53:40;2.17;;;0.60;;
15393;SDS011;7795;47.986;11.868;2023-01-05T14:56:12;0.83;;;0.70;;
15393;SDS011;7795;47.986;11.868;2023-01-05T15:01:37;0.77;;;0.67;;
15393;SDS011;7795;47.986;11.868;2023-01-05T15:04:12;0.53;;;0.53;;
15393;SDS011;7795;47.986;11.868;2023-01-05T15:06:47;0.70;;;0.63;;
15393;SDS011;7795;47.986;11.868;2023-01-05T15:09:31;1.67;;;0.77;;
15393;SDS011;7795;47.986;11.868;2023-01-05T15:12:14;1.40;;;0.70;;
15393;SDS011;7795;47.986;11.868;2023-01-05T15:15:02;1.20;;;0.70;;
15393;SDS011;7795;47.986;11.868;2023-01-05T15:17:48;1.33;;;0.80;;
15393;SDS011;7795;47.986;11.868;2023-01-05T15:20:47;0.97;;;0.60;;
15393;SDS011;7795;47.986;11.868;2023-01-05T15:24:01;2.23;;;1.00;;
15393;SDS011;7795;47.986;11.868;2023-01-05T15:26:58;1.13;;;0.67;;
15393;SDS011;7795;47.986;11.868;2023-01-05T15:29:42;1.57;;;1.00;;
15393;SDS011;7795;47.986;11.868;2023-01-05T15:32:17;3.20;;;1.00;;
15393;SDS011;7795;47.986;11.868;2023-01-05T15:34:46;1.90;;;0.90;;
15393;SDS011;7795;47.986;11.868;2023-01-05T15:37:19;1.10;;;0.80;;
15393;SDS011;7795;47.986;11.868;2023-01-05T15:39:49;1.63;;;0.90;;